createdAt,value
2017-12-16T00:01:28.624Z,2.20
2017-12-16T00:03:56.087Z,2.30
2017-12-16T00:06:23.542Z,2.30
2017-12-16T00:08:51.021Z,2.30
2017-12-16T00:11:19.243Z,2.30
2017-12-16T00:13:46.698Z,2.30
2017-12-16T00:16:14.170Z,2.30
2017-12-16T00:18:41.631Z,2.30
2017-12-16T00:21:09.298Z,2.30
2017-12-16T00:23:36.767Z,2.30
2017-12-16T00:26:04.232Z,2.30
2017-12-16T00:28:31.698Z,2.30
2017-12-16T00:30:59.927Z,2.20
2017-12-16T00:33:27.391Z,2.20
2017-12-16T00:35:54.869Z,2.20
2017-12-16T00:38:22.333Z,2.20
2017-12-16T00:40:49.787Z,2.10
2017-12-16T00:43:17.255Z,2.10
2017-12-16T00:45:45.497Z,1.90
2017-12-16T00:48:12.966Z,1.90
2017-12-16T00:50:40.444Z,1.90
2017-12-16T00:53:08.671Z,1.90
2017-12-16T00:55:36.138Z,1.80
2017-12-16T00:58:03.599Z,1.80
2017-12-16T01:00:31.072Z,1.90
2017-12-16T01:02:58.541Z,1.90
2017-12-16T01:05:26.770Z,1.90
2017-12-16T01:07:54.249Z,1.90
2017-12-16T01:10:21.694Z,1.90
2017-12-16T01:12:49.154Z,1.90
2017-12-16T01:15:16.631Z,2.00
2017-12-16T01:17:44.104Z,2.00
2017-12-16T01:20:12.352Z,2.00
2017-12-16T01:22:39.807Z,2.00
2017-12-16T01:25:07.272Z,2.10
2017-12-16T01:27:34.752Z,2.10
2017-12-16T01:30:02.980Z,2.20
2017-12-16T01:32:30.447Z,2.20
2017-12-16T01:35:09.849Z,2.20
2017-12-16T01:37:49.978Z,2.20
2017-12-16T01:40:18.215Z,2.10
2017-12-16T01:42:45.704Z,2.10
2017-12-16T01:45:13.955Z,2.10
2017-12-16T01:47:41.414Z,2.10
2017-12-16T01:50:08.888Z,2.10
2017-12-16T01:52:37.133Z,2.20
2017-12-16T01:55:04.596Z,2.20
2017-12-16T01:57:32.052Z,2.20
2017-12-16T01:59:59.574Z,2.30
2017-12-16T02:02:27.042Z,2.40
2017-12-16T02:04:54.508Z,2.40
2017-12-16T02:07:21.976Z,2.40
2017-12-16T02:09:49.440Z,2.40
2017-12-16T02:12:16.899Z,2.40
2017-12-16T02:14:44.380Z,2.40
2017-12-16T02:17:12.618Z,2.40
2017-12-16T02:19:40.074Z,2.30
2017-12-16T02:22:08.307Z,2.30
2017-12-16T02:24:35.773Z,2.30
2017-12-16T02:27:03.238Z,2.20
2017-12-16T02:29:30.709Z,2.20
2017-12-16T02:31:58.175Z,2.20
2017-12-16T02:34:25.666Z,2.20
2017-12-16T02:36:53.927Z,2.30
2017-12-16T02:39:21.392Z,2.20
2017-12-16T02:41:48.863Z,2.30
2017-12-16T02:44:17.083Z,2.40
2017-12-16T02:46:44.535Z,2.30
2017-12-16T02:49:12.007Z,2.30
2017-12-16T02:51:39.472Z,2.30
2017-12-16T02:54:06.951Z,2.20
2017-12-16T02:56:34.410Z,2.20
2017-12-16T02:59:02.643Z,2.00
2017-12-16T03:01:30.122Z,2.00
2017-12-16T03:03:57.577Z,2.00
2017-12-16T03:06:25.043Z,1.90
2017-12-16T03:08:52.495Z,1.80
2017-12-16T03:11:19.954Z,1.80
2017-12-16T03:13:47.428Z,1.80
2017-12-16T03:16:14.883Z,1.70
2017-12-16T03:18:43.118Z,1.60
2017-12-16T03:21:10.582Z,1.60
2017-12-16T03:23:38.038Z,1.60
2017-12-16T03:26:05.531Z,1.50
2017-12-16T03:28:33.776Z,1.50
2017-12-16T03:31:01.232Z,1.40
2017-12-16T03:33:28.682Z,1.40
2017-12-16T03:35:56.152Z,1.40
2017-12-16T03:38:23.602Z,1.30
2017-12-16T03:40:51.075Z,1.30
2017-12-16T03:43:18.532Z,1.30
2017-12-16T03:45:46.055Z,1.30
2017-12-16T03:48:13.531Z,1.30
2017-12-16T03:50:40.991Z,1.20
2017-12-16T03:53:08.448Z,1.20
2017-12-16T03:55:35.929Z,1.20
2017-12-16T03:58:04.163Z,1.20
2017-12-16T04:00:31.626Z,1.20
2017-12-16T04:02:59.082Z,1.20
2017-12-16T04:05:26.559Z,1.30
2017-12-16T04:07:54.010Z,1.30
2017-12-16T04:10:21.470Z,1.30
2017-12-16T04:12:48.937Z,1.30
2017-12-16T04:15:16.394Z,1.20
2017-12-16T04:17:43.865Z,1.30
2017-12-16T04:20:12.075Z,1.20
2017-12-16T04:22:39.543Z,1.20
2017-12-16T04:25:07.010Z,1.20
2017-12-16T04:27:34.876Z,1.20
2017-12-16T04:30:02.370Z,1.10
2017-12-16T04:32:30.607Z,1.00
2017-12-16T04:34:58.106Z,1.00
2017-12-16T04:37:25.571Z,1.10
2017-12-16T04:39:53.816Z,1.00
2017-12-16T04:42:21.334Z,1.00
2017-12-16T04:44:48.787Z,1.00
2017-12-16T04:47:16.254Z,1.00
2017-12-16T04:49:43.707Z,1.00
2017-12-16T04:52:11.158Z,0.90
2017-12-16T04:54:38.623Z,0.90
2017-12-16T04:57:06.083Z,0.90
2017-12-16T04:59:33.562Z,0.90
2017-12-16T05:02:01.827Z,0.90
2017-12-16T05:04:29.282Z,0.90
2017-12-16T05:06:56.754Z,0.90
2017-12-16T05:09:24.211Z,1.00
2017-12-16T05:11:51.671Z,1.10
2017-12-16T05:14:19.145Z,1.10
2017-12-16T05:16:47.362Z,1.00
2017-12-16T05:19:15.820Z,1.00
2017-12-16T05:21:43.294Z,1.00
2017-12-16T05:24:10.747Z,1.00
2017-12-16T05:26:38.215Z,0.90
2017-12-16T05:29:05.705Z,0.90
2017-12-16T05:31:33.163Z,0.90
2017-12-16T05:34:00.624Z,0.80
2017-12-16T05:36:28.099Z,0.90
2017-12-16T05:38:56.320Z,1.20
2017-12-16T05:41:23.774Z,1.20
2017-12-16T05:43:51.251Z,1.40
2017-12-16T05:46:18.706Z,1.40
2017-12-16T05:48:46.166Z,1.40
2017-12-16T05:51:13.659Z,1.40
2017-12-16T05:53:41.879Z,1.30
2017-12-16T05:56:09.348Z,1.30
2017-12-16T05:58:36.810Z,1.20
2017-12-16T06:01:04.271Z,1.20
2017-12-16T06:03:31.743Z,1.30
2017-12-16T06:05:59.199Z,1.40
2017-12-16T06:08:26.662Z,1.50
2017-12-16T06:10:54.128Z,1.70
2017-12-16T06:13:22.355Z,2.00
2017-12-16T06:15:49.816Z,2.00
2017-12-16T06:18:17.282Z,2.10
2017-12-16T06:20:44.739Z,2.10
2017-12-16T06:23:12.203Z,2.10
2017-12-16T06:25:39.663Z,2.10
2017-12-16T06:28:07.119Z,2.10
2017-12-16T06:30:34.582Z,2.10
2017-12-16T06:33:02.043Z,2.10
2017-12-16T06:35:29.500Z,2.10
2017-12-16T06:37:56.964Z,2.10
2017-12-16T06:40:24.418Z,2.10
2017-12-16T06:42:51.922Z,2.20
2017-12-16T06:45:19.379Z,2.30
2017-12-16T06:47:46.856Z,2.40
2017-12-16T06:50:14.314Z,2.60
2017-12-16T06:52:41.780Z,2.60
2017-12-16T06:55:09.239Z,2.70
2017-12-16T06:57:36.698Z,2.70
2017-12-16T07:00:04.165Z,2.70
2017-12-16T07:02:31.622Z,2.70
2017-12-16T07:04:59.091Z,2.70
2017-12-16T07:07:27.717Z,2.50
2017-12-16T07:09:55.194Z,2.50
2017-12-16T07:12:23.040Z,2.40
2017-12-16T07:14:50.503Z,2.30
2017-12-16T07:17:17.968Z,2.30
2017-12-16T07:19:45.415Z,2.20
2017-12-16T07:22:12.870Z,2.10
2017-12-16T07:24:40.338Z,2.10
2017-12-16T07:27:07.806Z,2.00
2017-12-16T07:29:36.031Z,1.90
2017-12-16T07:32:03.490Z,1.90
2017-12-16T07:34:30.972Z,1.90
2017-12-16T07:36:58.434Z,1.80
2017-12-16T07:39:25.919Z,1.80
2017-12-16T07:41:53.374Z,1.70
2017-12-16T07:44:20.854Z,1.70
2017-12-16T07:46:49.072Z,1.60
2017-12-16T07:49:16.528Z,1.60
2017-12-16T07:51:43.998Z,1.60
2017-12-16T07:54:11.462Z,1.60
2017-12-16T07:56:38.918Z,1.60
2017-12-16T07:59:06.390Z,1.50
2017-12-16T08:01:33.879Z,1.50
2017-12-16T08:04:02.103Z,1.60
2017-12-16T08:06:29.579Z,1.70
2017-12-16T08:08:57.056Z,1.80
2017-12-16T08:11:24.503Z,2.00
2017-12-16T08:13:51.978Z,2.10
2017-12-16T08:16:20.197Z,2.30
2017-12-16T08:18:47.655Z,2.30
2017-12-16T08:21:15.424Z,2.30
2017-12-16T08:23:42.876Z,2.40
2017-12-16T08:26:10.324Z,2.30
2017-12-16T08:28:37.791Z,2.40
2017-12-16T08:31:05.246Z,2.40
2017-12-16T08:33:32.703Z,2.60
2017-12-16T08:36:00.177Z,2.70
2017-12-16T08:38:27.651Z,2.80
2017-12-16T08:40:55.107Z,2.90
2017-12-16T08:43:22.578Z,3.00
2017-12-16T08:45:50.812Z,2.90
2017-12-16T08:48:18.295Z,2.90
2017-12-16T08:50:45.760Z,2.80
2017-12-16T08:53:13.229Z,2.70
2017-12-16T08:55:41.757Z,2.70
2017-12-16T08:58:09.269Z,2.60
2017-12-16T09:00:37.491Z,2.60
2017-12-16T09:03:04.950Z,2.60
2017-12-16T09:05:32.416Z,2.60
2017-12-16T09:07:59.875Z,2.70
2017-12-16T09:10:27.337Z,2.80
2017-12-16T09:12:54.816Z,2.80
2017-12-16T09:15:22.276Z,2.80
2017-12-16T09:17:50.495Z,2.70
2017-12-16T09:20:17.979Z,2.70
2017-12-16T09:22:45.431Z,2.60
2017-12-16T09:25:13.221Z,2.60
2017-12-16T09:27:40.689Z,2.60
2017-12-16T09:30:08.910Z,2.90
2017-12-16T09:32:36.362Z,2.90
2017-12-16T09:35:03.830Z,3.00
2017-12-16T09:37:31.294Z,3.10
2017-12-16T09:39:58.750Z,3.10
2017-12-16T09:42:26.233Z,3.20
2017-12-16T09:44:53.726Z,3.20
2017-12-16T09:47:21.174Z,3.20
2017-12-16T09:49:48.643Z,3.40
2017-12-16T09:52:16.093Z,3.60
2017-12-16T09:54:43.545Z,3.80
2017-12-16T09:57:11.766Z,4.30
2017-12-16T09:59:39.987Z,4.40
2017-12-16T10:02:08.220Z,4.30
2017-12-16T10:04:35.683Z,4.30
2017-12-16T10:07:03.139Z,4.30
2017-12-16T10:09:30.612Z,4.30
2017-12-16T10:11:58.066Z,4.20
2017-12-16T10:14:25.516Z,4.10
2017-12-16T10:16:52.983Z,4.00
2017-12-16T10:19:20.438Z,3.90
2017-12-16T10:21:47.897Z,3.90
2017-12-16T10:24:15.356Z,3.90
2017-12-16T10:26:42.814Z,3.90
2017-12-16T10:29:10.262Z,4.00
2017-12-16T10:31:37.709Z,4.30
2017-12-16T10:34:05.181Z,4.40
2017-12-16T10:36:32.639Z,4.40
2017-12-16T10:39:00.095Z,4.40
2017-12-16T10:41:27.564Z,4.40
2017-12-16T10:43:55.804Z,4.50
2017-12-16T10:46:23.266Z,4.50
2017-12-16T10:48:50.729Z,4.50
2017-12-16T10:51:18.194Z,4.50
2017-12-16T10:53:45.650Z,4.50
2017-12-16T10:56:13.094Z,4.50
2017-12-16T10:58:40.549Z,4.60
2017-12-16T11:01:08.016Z,4.70
2017-12-16T11:03:36.986Z,5.00
2017-12-16T11:06:04.457Z,5.00
2017-12-16T11:08:31.931Z,5.20
2017-12-16T11:10:59.376Z,5.40
2017-12-16T11:13:26.836Z,5.60
2017-12-16T11:15:54.287Z,5.70
2017-12-16T11:18:21.751Z,5.70
2017-12-16T11:20:49.194Z,5.80
2017-12-16T11:23:16.642Z,5.80
2017-12-16T11:25:44.120Z,5.90
2017-12-16T11:28:11.574Z,5.90
2017-12-16T11:30:39.066Z,5.90
2017-12-16T11:33:06.537Z,5.90
2017-12-16T11:35:33.989Z,5.90
2017-12-16T11:38:01.451Z,6.00
2017-12-16T11:40:28.939Z,6.10
2017-12-16T11:42:56.385Z,6.00
2017-12-16T11:45:23.870Z,6.10
2017-12-16T11:47:51.323Z,6.10
2017-12-16T11:50:18.787Z,6.00
2017-12-16T11:52:46.264Z,6.10
2017-12-16T11:57:49.119Z,6.10
2017-12-16T12:00:16.571Z,6.10
2017-12-16T12:02:44.026Z,6.10
2017-12-16T12:05:11.496Z,6.10
2017-12-16T12:07:38.951Z,6.10
2017-12-16T12:10:06.411Z,6.20
2017-12-16T12:12:33.886Z,6.20
2017-12-16T12:15:01.343Z,6.30
2017-12-16T12:17:28.811Z,6.40
2017-12-16T12:19:57.022Z,6.50
2017-12-16T12:22:24.481Z,6.50
2017-12-16T12:24:51.950Z,6.60
2017-12-16T12:27:19.398Z,6.80
2017-12-16T12:29:46.864Z,6.80
2017-12-16T12:32:14.327Z,6.80
2017-12-16T12:34:41.789Z,6.70
2017-12-16T12:37:09.245Z,6.50
2017-12-16T12:39:36.743Z,6.30
2017-12-16T12:42:04.964Z,5.90
2017-12-16T12:44:32.422Z,5.90
2017-12-16T12:46:59.963Z,5.80
2017-12-16T12:49:27.403Z,5.70
2017-12-16T12:51:54.863Z,5.60
2017-12-16T12:54:22.330Z,5.50
2017-12-16T12:56:49.788Z,5.40
2017-12-16T12:59:17.254Z,5.30
2017-12-16T13:01:44.707Z,5.30
2017-12-16T13:04:12.163Z,5.20
2017-12-16T13:06:39.620Z,5.10
2017-12-16T13:09:07.075Z,5.00
2017-12-16T13:11:34.548Z,5.10
2017-12-16T13:14:01.999Z,5.10
2017-12-16T13:16:29.446Z,5.20
2017-12-16T13:18:56.916Z,5.30
2017-12-16T13:21:24.359Z,5.40
2017-12-16T13:23:51.822Z,5.40
2017-12-16T13:26:19.267Z,5.50
2017-12-16T13:28:46.724Z,5.50
2017-12-16T13:31:14.178Z,5.60
2017-12-16T13:33:41.638Z,5.60
2017-12-16T13:36:09.100Z,5.70
2017-12-16T13:38:36.555Z,5.80
2017-12-16T13:41:04.010Z,5.90
2017-12-16T13:43:31.478Z,6.00
2017-12-16T13:45:58.924Z,6.10
2017-12-16T13:48:26.388Z,5.90
2017-12-16T13:50:53.872Z,5.80
2017-12-16T13:53:21.332Z,5.60
2017-12-16T13:55:48.774Z,5.50
2017-12-16T13:58:16.246Z,5.30
2017-12-16T14:00:43.686Z,5.10
2017-12-16T14:03:11.170Z,5.00
2017-12-16T14:05:38.619Z,4.90
2017-12-16T14:08:06.077Z,4.80
2017-12-16T14:10:33.559Z,4.70
2017-12-16T14:13:01.776Z,4.60
2017-12-16T14:15:29.235Z,4.60
2017-12-16T14:17:56.700Z,4.60
2017-12-16T14:20:24.159Z,4.70
2017-12-16T14:22:51.624Z,4.60
2017-12-16T14:25:19.090Z,4.70
2017-12-16T14:27:46.536Z,4.70
2017-12-16T14:30:14.031Z,4.60
2017-12-16T14:32:42.553Z,4.80
2017-12-16T14:35:10.001Z,4.70
2017-12-16T14:37:37.456Z,4.90
2017-12-16T14:40:04.936Z,5.00
2017-12-16T14:42:32.397Z,5.00
2017-12-16T14:44:59.850Z,5.00
2017-12-16T14:47:27.319Z,5.00
2017-12-16T14:49:55.627Z,5.00
2017-12-16T14:52:23.839Z,4.80
2017-12-16T14:54:51.306Z,4.80
2017-12-16T14:57:18.758Z,4.70
2017-12-16T14:59:46.202Z,4.60
2017-12-16T15:02:13.692Z,4.60
2017-12-16T15:04:41.151Z,4.50
2017-12-16T15:07:08.626Z,4.40
2017-12-16T15:09:36.864Z,4.40
2017-12-16T15:12:04.318Z,4.30
2017-12-16T15:14:31.802Z,4.30
2017-12-16T15:16:59.264Z,4.30
2017-12-16T15:19:26.711Z,4.20
2017-12-16T15:21:54.188Z,4.20
2017-12-16T15:24:22.411Z,4.10
2017-12-16T15:26:49.889Z,4.00
2017-12-16T15:29:17.337Z,4.00
2017-12-16T15:31:44.793Z,4.00
2017-12-16T15:34:12.295Z,3.90
2017-12-16T15:36:39.714Z,3.90
2017-12-16T15:39:07.175Z,3.90
2017-12-16T15:41:34.643Z,3.90
2017-12-16T15:44:02.106Z,4.00
2017-12-16T15:46:29.564Z,4.00
2017-12-16T15:48:57.035Z,4.00
2017-12-16T15:51:25.263Z,3.90
2017-12-16T15:53:52.719Z,3.90
2017-12-16T15:56:20.185Z,3.80
2017-12-16T15:58:47.651Z,3.80
2017-12-16T16:01:15.102Z,3.70
2017-12-16T16:03:42.582Z,3.70
2017-12-16T16:06:10.035Z,3.60
2017-12-16T16:08:38.263Z,3.50
2017-12-16T16:11:05.747Z,3.50
2017-12-16T16:13:33.212Z,3.50
2017-12-16T16:16:00.745Z,3.50
2017-12-16T16:18:28.934Z,3.40
2017-12-16T16:20:56.387Z,3.40
2017-12-16T16:23:23.851Z,3.40
2017-12-16T16:25:51.315Z,3.40
2017-12-16T16:28:18.791Z,3.30
2017-12-16T16:30:47.007Z,3.30
2017-12-16T16:33:14.791Z,3.30
2017-12-16T16:35:42.251Z,3.30
2017-12-16T16:38:09.727Z,3.30
2017-12-16T16:40:37.175Z,3.30
2017-12-16T16:43:04.656Z,3.20
2017-12-16T16:45:32.886Z,3.10
2017-12-16T16:48:00.352Z,3.10
2017-12-16T16:50:27.823Z,3.10
2017-12-16T16:52:55.287Z,3.10
2017-12-16T16:55:22.752Z,3.10
2017-12-16T16:57:50.215Z,3.10
2017-12-16T17:00:18.435Z,3.30
2017-12-16T17:02:45.895Z,3.20
2017-12-16T17:05:13.359Z,3.30
2017-12-16T17:07:40.900Z,3.40
2017-12-16T17:10:08.368Z,3.50
2017-12-16T17:12:35.840Z,3.50
2017-12-16T17:15:03.333Z,3.50
2017-12-16T17:17:30.809Z,3.60
2017-12-16T17:19:58.258Z,3.50
2017-12-16T17:22:25.742Z,3.50
2017-12-16T17:24:53.229Z,3.50
2017-12-16T17:27:20.675Z,3.50
2017-12-16T17:29:48.155Z,3.40
2017-12-16T17:32:15.632Z,3.40
2017-12-16T17:34:44.159Z,3.20
2017-12-16T17:37:11.915Z,3.20
2017-12-16T17:39:40.152Z,3.20
2017-12-16T17:42:08.368Z,3.10
2017-12-16T17:44:35.847Z,3.00
2017-12-16T17:47:03.303Z,3.00
2017-12-16T17:49:30.765Z,2.90
2017-12-16T17:51:58.241Z,2.90
2017-12-16T17:54:25.695Z,2.90
2017-12-16T17:56:53.148Z,3.00
2017-12-16T17:59:20.619Z,3.30
2017-12-16T18:01:48.836Z,3.50
2017-12-16T18:04:16.284Z,3.50
2017-12-16T18:06:43.757Z,3.50
2017-12-16T18:09:11.218Z,3.50
2017-12-16T18:11:38.670Z,3.50
2017-12-16T18:14:06.147Z,3.50
2017-12-16T18:16:33.636Z,3.40
2017-12-16T18:19:01.851Z,3.40
2017-12-16T18:21:29.337Z,3.40
2017-12-16T18:23:56.787Z,3.40
2017-12-16T18:26:24.256Z,3.40
2017-12-16T18:28:51.723Z,3.40
2017-12-16T18:31:19.192Z,3.40
2017-12-16T18:33:46.642Z,3.40
2017-12-16T18:36:14.111Z,3.40
2017-12-16T18:38:42.331Z,3.40
2017-12-16T18:41:09.795Z,3.40
2017-12-16T18:43:37.257Z,3.40
2017-12-16T18:46:04.703Z,3.40
2017-12-16T18:48:32.176Z,3.50
2017-12-16T18:50:59.635Z,3.40
2017-12-16T18:53:27.096Z,3.40
2017-12-16T18:55:54.566Z,3.40
2017-12-16T18:58:22.027Z,3.30
2017-12-16T19:00:49.482Z,3.20
2017-12-16T19:03:16.927Z,3.20
2017-12-16T19:05:44.386Z,3.20
2017-12-16T19:08:11.856Z,3.10
2017-12-16T19:10:39.312Z,3.10
2017-12-16T19:13:06.763Z,3.10
2017-12-16T19:15:34.238Z,3.20
2017-12-16T19:18:02.459Z,3.20
2017-12-16T19:20:29.927Z,3.20
2017-12-16T19:22:57.396Z,3.30
2017-12-16T19:25:24.858Z,3.30
2017-12-16T19:27:52.360Z,3.30
2017-12-16T19:30:19.831Z,3.40
2017-12-16T19:32:47.296Z,3.50
2017-12-16T19:35:14.747Z,3.60
2017-12-16T19:37:42.227Z,3.60
2017-12-16T19:40:09.686Z,3.60
2017-12-16T19:42:37.151Z,3.50
2017-12-16T19:45:04.606Z,3.40
2017-12-16T19:47:32.071Z,3.40
2017-12-16T19:49:59.528Z,3.40
2017-12-16T19:52:26.992Z,3.30
2017-12-16T19:54:54.454Z,3.30
2017-12-16T19:57:22.675Z,3.10
2017-12-16T19:59:50.230Z,3.10
2017-12-16T20:02:17.685Z,3.00
2017-12-16T20:04:45.151Z,2.90
2017-12-16T20:07:12.687Z,2.90
2017-12-16T20:09:40.908Z,2.80
2017-12-16T20:12:08.362Z,2.70
2017-12-16T20:14:35.860Z,2.60
2017-12-16T20:17:04.075Z,2.60
2017-12-16T20:19:31.539Z,2.60
2017-12-16T20:21:59.003Z,2.60
2017-12-16T20:24:26.462Z,2.60
2017-12-16T20:26:53.980Z,2.60
2017-12-16T20:29:21.430Z,2.60
2017-12-16T20:31:48.879Z,2.60
2017-12-16T20:34:16.347Z,2.60
2017-12-16T20:36:43.803Z,2.60
2017-12-16T20:39:11.255Z,2.60
2017-12-16T20:41:38.785Z,2.50
2017-12-16T20:44:06.271Z,2.50
2017-12-16T20:46:33.782Z,2.40
2017-12-16T20:49:01.247Z,2.50
2017-12-16T20:51:28.702Z,2.40
2017-12-16T20:53:56.159Z,2.30
2017-12-16T20:56:23.626Z,2.30
2017-12-16T20:58:51.075Z,2.30
2017-12-16T21:01:18.538Z,2.30
2017-12-16T21:03:46.010Z,2.30
2017-12-16T21:06:14.228Z,2.30
2017-12-16T21:08:41.685Z,2.30
2017-12-16T21:11:09.144Z,2.30
2017-12-16T21:13:36.605Z,2.30
2017-12-16T21:16:04.071Z,2.20
2017-12-16T21:18:31.527Z,2.30
2017-12-16T21:20:58.991Z,2.30
2017-12-16T21:23:26.458Z,2.40
2017-12-16T21:25:53.944Z,2.40
2017-12-16T21:28:22.178Z,2.40
2017-12-16T21:30:49.650Z,2.40
2017-12-16T21:33:17.107Z,2.40
2017-12-16T21:35:44.826Z,2.40
2017-12-16T21:38:12.293Z,2.50
2017-12-16T21:40:39.756Z,2.50
2017-12-16T21:43:07.207Z,2.60
2017-12-16T21:45:34.674Z,2.70
2017-12-16T21:48:02.130Z,2.70
2017-12-16T21:50:29.603Z,2.60
2017-12-16T21:52:57.064Z,2.70
2017-12-16T21:55:24.525Z,2.70
2017-12-16T21:57:51.986Z,2.70
2017-12-16T22:00:19.471Z,2.70
2017-12-16T22:02:46.921Z,2.80
2017-12-16T22:05:14.400Z,2.80
2017-12-16T22:07:41.863Z,2.80
2017-12-16T22:10:09.314Z,2.90
2017-12-16T22:12:36.779Z,2.90
2017-12-16T22:15:04.235Z,2.80
2017-12-16T22:17:31.703Z,2.80
2017-12-16T22:19:59.938Z,2.70
2017-12-16T22:22:27.386Z,2.70
2017-12-16T22:24:55.635Z,2.70
2017-12-16T22:27:23.095Z,2.70
2017-12-16T22:29:50.546Z,2.70
2017-12-16T22:32:18.019Z,2.70
2017-12-16T22:34:46.238Z,2.90
2017-12-16T22:37:13.710Z,2.90
2017-12-16T22:39:41.253Z,3.00
2017-12-16T22:42:08.694Z,3.10
2017-12-16T22:44:36.171Z,3.10
2017-12-16T22:47:03.636Z,3.10
2017-12-16T22:49:31.087Z,3.00
2017-12-16T22:51:58.559Z,3.10
2017-12-16T22:54:26.018Z,3.20
2017-12-16T22:56:53.524Z,3.30
2017-12-16T22:59:21.748Z,3.50
2017-12-16T23:01:49.206Z,3.50
2017-12-16T23:04:16.671Z,3.50
2017-12-16T23:06:44.137Z,3.60
2017-12-16T23:09:11.592Z,3.50
2017-12-16T23:11:39.059Z,3.50
2017-12-16T23:14:06.519Z,3.40
2017-12-16T23:16:34.031Z,3.30
2017-12-16T23:19:01.482Z,3.30
2017-12-16T23:21:28.937Z,3.20
2017-12-16T23:23:56.402Z,3.10
2017-12-16T23:26:23.856Z,3.00
2017-12-16T23:28:51.306Z,2.90
2017-12-16T23:31:18.784Z,2.80
2017-12-16T23:33:46.230Z,2.70
2017-12-16T23:36:13.694Z,2.70
2017-12-16T23:38:41.159Z,2.60
2017-12-16T23:41:08.615Z,2.50
2017-12-16T23:43:36.063Z,2.40
2017-12-16T23:46:03.545Z,2.40
2017-12-16T23:48:31.004Z,2.40
2017-12-16T23:50:58.470Z,2.40
2017-12-16T23:53:25.928Z,2.30
2017-12-16T23:55:54.148Z,2.30
2017-12-16T23:58:21.606Z,2.30
